Time;durP1;ratioP1;P1;durP2;ratioP2;P2;SDS_P1;SDS_P2;PMS_P1;PMS_P2;Temp;Humidity;BMP_temperature;BMP_pressure;BME280_temperature;BME280_humidity;BME280_pressure;Samples;Min_cycle;Max_cycle;Signal;HPM_P1;HPM_P2
2022/01/01 00:00:46;;;;;;;18.02;8.18;;;;;;;-8.71;64.96;99520.75;4940180;29;20043;-82
2022/01/01 00:03:12;;;;;;;15.82;8.15;;;;;;;-8.63;64.73;99518.16;4940145;29;20082;-82
2022/01/01 00:05:42;;;;;;;19.77;8.23;;;;;;;-8.58;64.52;99512.09;4909961;29;20053;-82
2022/01/01 00:08:10;;;;;;;17.13;7.28;;;;;;;-8.73;64.88;99506.91;4924379;29;20146;-82
2022/01/01 00:10:36;;;;;;;26.23;9.45;;;;;;;-8.58;64.75;99517.28;4939717;29;20054;-81
2022/01/01 00:13:03;;;;;;;17.30;8.20;;;;;;;-8.66;64.72;99511.22;4924623;29;20105;-82
2022/01/01 00:15:29;;;;;;;15.93;7.60;;;;;;;-8.86;65.16;99513.81;4956891;29;20138;-82
2022/01/01 00:17:57;;;;;;;13.10;6.35;;;;;;;-8.92;64.94;99506.03;4939163;28;20474;-81
2022/01/01 00:20:24;;;;;;;24.40;10.43;;;;;;;-8.89;65.07;99508.63;4924028;29;20117;-82
2022/01/01 00:22:49;;;;;;;26.88;11.15;;;;;;;-8.71;64.68;99494.84;4956464;29;20050;-81
2022/01/01 00:25:16;;;;;;;33.28;11.93;;;;;;;-8.70;64.53;99493.97;4954987;29;20166;-80
2022/01/01 00:27:42;;;;;;;18.77;9.93;;;;;;;-8.60;64.61;99493.09;4923989;29;20106;-82
2022/01/01 00:30:08;;;;;;;29.30;10.68;;;;;;;-8.61;64.59;99482.75;4923979;29;20047;-83
2022/01/01 00:32:37;;;;;;;28.35;12.00;;;;;;;-8.67;64.61;99475.81;4941045;29;20054;-85
2022/01/01 00:35:04;;;;;;;22.05;9.02;;;;;;;-8.54;64.51;99465.44;4893419;29;20069;-85
2022/01/01 00:37:33;;;;;;;22.58;8.98;;;;;;;-8.53;63.92;99472.38;4908820;29;20058;-86
2022/01/01 00:40:00;;;;;;;19.33;8.45;;;;;;;-8.55;63.89;99464.56;4923676;29;20553;-86
2022/01/01 00:42:25;;;;;;;15.45;7.00;;;;;;;-8.69;63.95;99466.31;4903531;29;20063;-86
2022/01/01 00:44:51;;;;;;;18.83;8.70;;;;;;;-8.66;64.12;99463.72;4888741;29;20091;-86
2022/01/01 00:47:17;;;;;;;19.52;7.53;;;;;;;-8.65;64.05;99453.38;4919385;29;20515;-85
2022/01/01 00:49:43;;;;;;;11.02;6.47;;;;;;;-8.66;63.73;99467.19;4903395;29;20540;-86
2022/01/01 00:52:09;;;;;;;18.50;7.95;;;;;;;-8.66;64.54;99462.00;4903422;29;20070;-85
2022/01/01 00:54:36;;;;;;;15.77;7.10;;;;;;;-8.52;63.86;99463.72;4887590;29;20059;-83
2022/01/01 00:57:02;;;;;;;15.70;7.20;;;;;;;-8.50;64.08;99451.59;4918460;29;20146;-82
2022/01/01 00:59:30;;;;;;;17.48;7.65;;;;;;;-8.47;63.77;99459.38;4902694;29;20043;-81
2022/01/01 01:01:57;;;;;;;13.70;6.32;;;;;;;-8.59;63.68;99448.16;4934337;29;20159;-83
2022/01/01 01:04:23;;;;;;;16.17;7.47;;;;;;;-8.54;63.26;99447.28;4918671;29;20130;-81
2022/01/01 01:06:49;;;;;;;13.57;7.25;;;;;;;-8.52;63.53;99451.63;4903416;29;20159;-83
2022/01/01 01:09:15;;;;;;;11.50;5.70;;;;;;;-8.42;63.43;99444.72;4919587;29;20053;-82
2022/01/01 01:11:44;;;;;;;14.77;7.45;;;;;;;-8.36;63.33;99442.03;4887776;29;20052;-83
2022/01/01 01:14:19;;;;;;;17.05;6.55;;;;;;;-8.51;62.94;99452.47;4932255;29;20503;-81
2022/01/01 01:16:45;;;;;;;17.83;6.93;;;;;;;-8.72;63.51;99445.63;4908845;29;20054;-82
2022/01/01 01:19:11;;;;;;;18.85;7.22;;;;;;;-8.66;63.55;99441.25;4946018;29;20051;-82
2022/01/01 01:21:37;;;;;;;18.13;7.07;;;;;;;-8.74;63.64;99436.97;4944999;29;20512;-81
2022/01/01 01:24:04;;;;;;;19.17;8.35;;;;;;;-8.64;63.57;99454.25;4920794;29;20071;-83
2022/01/01 01:26:30;;;;;;;18.30;7.82;;;;;;;-8.76;63.90;99443.88;4937987;29;20091;-81
2022/01/01 01:28:57;;;;;;;13.48;6.75;;;;;;;-8.68;63.96;99436.97;4903415;29;20058;-80
2022/01/01 01:31:24;;;;;;;21.15;8.15;;;;;;;-8.93;63.93;99402.44;4903672;29;20075;-80
2022/01/01 01:33:50;;;;;;;15.07;7.55;;;;;;;-8.88;64.65;99421.44;4904292;29;20078;-83
2022/01/01 01:36:17;;;;;;;17.15;7.65;;;;;;;-8.96;64.60;99421.44;4919277;29;20043;-82
2022/01/01 01:38:43;;;;;;;7.50;4.68;;;;;;;-8.92;64.60;99411.94;4919550;29;20051;-82
2022/01/01 01:41:09;;;;;;;20.05;7.95;;;;;;;-8.89;64.79;99422.28;4903373;29;20126;-83
2022/01/01 01:43:35;;;;;;;16.70;7.82;;;;;;;-8.94;65.06;99418.84;4904166;29;20411;-82
2022/01/01 01:46:05;;;;;;;20.38;7.28;;;;;;;-8.96;65.36;99402.44;4935227;29;20048;-82
2022/01/01 01:48:32;;;;;;;17.90;7.85;;;;;;;-9.05;65.32;99401.59;4905161;29;20623;-83
2022/01/01 01:50:59;;;;;;;20.35;8.63;;;;;;;-9.07;65.50;99382.59;4904037;29;20104;-83
2022/01/01 01:53:25;;;;;;;15.07;6.55;;;;;;;-9.05;65.78;99391.22;4918817;29;20126;-82
2022/01/01 01:55:51;;;;;;;18.48;7.35;;;;;;;-9.02;65.70;99387.78;4945326;28;20134;-81
2022/01/01 01:58:17;;;;;;;9.80;5.00;;;;;;;-9.08;65.45;99370.50;4941246;28;20422;-82
2022/01/01 02:03:28;;;;;;;10.32;5.55;;;;;;;-8.99;65.63;99372.22;4927552;28;20054;-84
2022/01/01 02:05:54;;;;;;;15.10;6.82;;;;;;;-9.10;65.15;99345.47;4930896;28;20047;-84
2022/01/01 02:08:20;;;;;;;10.27;4.97;;;;;;;-9.10;65.86;99358.41;4929945;28;20461;-84
2022/01/01 02:10:48;;;;;;;12.48;5.35;;;;;;;-9.32;66.39;99342.91;4941853;28;20047;-84
2022/01/01 02:13:22;;;;;;;12.80;5.50;;;;;;;-9.35;66.56;99318.75;4977740;28;20133;-84
2022/01/01 02:18:18;;;;;;;13.07;6.13;;;;;;;-9.25;66.66;99312.72;4913895;28;20047;-83
2022/01/01 02:20:49;;;;;;;9.57;4.65;;;;;;;-9.39;67.09;99332.56;4977080;28;20043;-83
2022/01/01 02:23:17;;;;;;;12.00;4.75;;;;;;;-9.47;67.54;99331.72;4945971;28;20047;-83
2022/01/01 02:25:43;;;;;;;10.75;5.97;;;;;;;-9.43;67.53;99325.66;4945254;28;20358;-81
2022/01/01 02:28:10;;;;;;;11.50;5.28;;;;;;;-9.32;67.15;99329.13;4944649;28;20129;-82
2022/01/01 02:30:36;;;;;;;7.65;4.43;;;;;;;-9.39;67.19;99342.91;4928463;28;20522;-81
2022/01/01 02:33:02;;;;;;;7.72;3.60;;;;;;;-9.37;67.33;99339.44;4960281;28;20062;-81
2022/01/01 02:35:28;;;;;;;12.77;6.05;;;;;;;-9.26;66.97;99336.84;4944772;28;20035;-87
2022/01/01 02:37:54;;;;;;;11.73;5.60;;;;;;;-9.26;67.14;99331.69;4929154;28;20054;-87
2022/01/01 02:40:20;;;;;;;14.98;6.75;;;;;;;-9.05;66.90;99329.09;4928988;28;20047;-86
2022/01/01 02:42:46;;;;;;;14.07;5.80;;;;;;;-8.97;66.72;99330.81;4960601;28;20045;-91
2022/01/01 02:45:13;;;;;;;15.82;6.63;;;;;;;-8.82;66.45;99331.63;4914054;28;20129;-90
2022/01/01 02:47:39;;;;;;;15.10;6.80;;;;;;;-8.98;66.43;99308.38;4930040;28;20093;-92
2022/01/01 02:50:06;;;;;;;17.85;6.97;;;;;;;-9.10;66.51;99284.22;4961145;28;20047;-89
2022/01/01 02:52:32;;;;;;;14.27;7.40;;;;;;;-9.07;66.29;99298.88;4961475;28;20046;-87
2022/01/01 02:54:58;;;;;;;13.25;6.22;;;;;;;-8.93;66.14;99319.56;4944831;28;20065;-87
2022/01/01 02:57:25;;;;;;;12.35;5.05;;;;;;;-9.20;66.76;99318.75;4973683;28;20055;-88
2022/01/01 02:59:51;;;;;;;22.15;7.90;;;;;;;-9.13;66.71;99304.94;4958739;29;20082;-90
2022/01/01 03:02:17;;;;;;;19.73;6.75;;;;;;;-8.91;66.39;99320.41;4958108;29;20047;-89
2022/01/01 03:04:43;;;;;;;12.57;6.32;;;;;;;-8.74;66.35;99313.47;4941959;29;20051;-90
2022/01/01 03:07:09;;;;;;;15.90;6.95;;;;;;;-8.76;65.78;99315.22;4941862;29;20085;-81
2022/01/01 03:09:35;;;;;;;16.38;7.60;;;;;;;-8.76;65.71;99304.84;4956706;29;20144;-80
2022/01/01 03:12:05;;;;;;;12.20;6.30;;;;;;;-8.76;65.74;99307.44;4924828;29;20046;-80
2022/01/01 03:14:32;;;;;;;9.07;5.00;;;;;;;-8.83;65.33;99308.31;4941227;29;20126;-80
2022/01/01 03:16:58;;;;;;;9.07;4.85;;;;;;;-8.83;64.83;99308.31;4925281;29;20050;-80
2022/01/01 03:19:24;;;;;;;14.30;5.18;;;;;;;-8.92;65.47;99309.19;4940573;29;20054;-79
2022/01/01 03:21:50;;;;;;;11.50;4.80;;;;;;;-8.96;65.36;99296.25;4956205;28;20039;-80
2022/01/01 03:24:16;;;;;;;10.32;5.85;;;;;;;-8.82;65.51;99325.59;4940697;29;20051;-79
2022/01/01 03:26:42;;;;;;;12.40;5.35;;;;;;;-8.83;65.54;99318.69;4940419;29;20125;-80
2022/01/01 03:29:10;;;;;;;17.05;5.03;;;;;;;-8.72;65.76;99318.66;4956583;29;20053;-81
2022/01/01 03:31:36;;;;;;;10.35;4.72;;;;;;;-8.86;65.14;99303.16;4956265;29;20062;-86
2022/01/01 03:34:03;;;;;;;14.10;5.55;;;;;;;-8.91;65.49;99315.22;4940251;28;20116;-80
2022/01/01 03:36:28;;;;;;;12.32;5.15;;;;;;;-8.93;65.63;99316.97;4957762;29;20047;-78
2022/01/01 03:38:56;;;;;;;12.13;5.15;;;;;;;-8.95;65.96;99323.88;4956410;29;20051;-81
2022/01/01 03:41:22;;;;;;;10.95;4.40;;;;;;;-9.03;66.24;99321.28;4924372;29;20414;-80
2022/01/01 03:43:49;;;;;;;13.05;5.70;;;;;;;-9.02;66.21;99317.88;4940342;29;20047;-78
2022/01/01 03:46:15;;;;;;;7.65;4.75;;;;;;;-8.99;66.54;99316.97;4956920;28;20047;-79
2022/01/01 03:48:41;;;;;;;10.20;5.18;;;;;;;-9.09;66.89;99322.19;4955771;29;20070;-81
2022/01/01 03:51:06;;;;;;;10.13;4.78;;;;;;;-8.98;66.71;99319.59;4955843;29;20075;-79
2022/01/01 03:53:33;;;;;;;9.00;4.85;;;;;;;-8.88;66.38;99320.41;4955647;29;20053;-78
2022/01/01 03:55:59;;;;;;;10.70;5.60;;;;;;;-8.88;66.51;99310.03;4962424;28;20445;-79
2022/01/01 03:58:25;;;;;;;10.57;4.93;;;;;;;-8.84;66.40;99315.25;4975121;28;20042;-80
2022/01/01 04:00:51;;;;;;;14.00;6.72;;;;;;;-8.81;66.24;99327.28;4959455;28;20483;-81
2022/01/01 04:03:17;;;;;;;10.63;5.68;;;;;;;-8.69;66.28;99321.22;4975557;28;20043;-87
2022/01/01 04:05:43;;;;;;;15.73;7.32;;;;;;;-8.67;65.88;99320.34;4974850;28;20085;-88
2022/01/01 04:08:10;;;;;;;16.70;6.50;;;;;;;-8.69;65.92;99326.41;4943416;28;20525;-85
2022/01/01 04:10:36;;;;;;;17.23;5.25;;;;;;;-8.72;65.70;99316.94;4958963;28;20480;-77
2022/01/01 04:13:03;;;;;;;21.95;5.57;;;;;;;-8.81;66.09;99317.78;4975982;28;20109;-79
2022/01/01 04:15:29;;;;;;;16.60;5.20;;;;;;;-8.52;67.75;99323.78;4958548;28;20105;-78
2022/01/01 04:18:00;;;;;;;12.65;5.22;;;;;;;-8.52;66.40;99310.81;4943035;28;20049;-77
2022/01/01 04:20:26;;;;;;;6.78;4.43;;;;;;;-8.59;65.96;99312.56;4974486;28;20046;-78
2022/01/01 04:22:53;;;;;;;13.15;5.65;;;;;;;-8.68;66.04;99312.59;4942635;28;20081;-80
2022/01/01 04:25:20;;;;;;;10.10;5.75;;;;;;;-8.61;65.64;99325.53;4942596;28;20049;-80
2022/01/01 04:27:47;;;;;;;13.73;4.57;;;;;;;-8.66;66.00;99327.25;4958929;28;20074;-79
2022/01/01 04:30:13;;;;;;;10.88;4.38;;;;;;;-8.70;66.39;99333.31;4974429;28;20034;-78
2022/01/01 04:32:39;;;;;;;6.78;4.07;;;;;;;-8.78;66.03;99316.06;4942411;28;20395;-79
2022/01/01 04:35:06;;;;;;;9.50;5.25;;;;;;;-8.85;66.45;99290.19;4941708;28;20039;-78
2022/01/01 04:37:33;;;;;;;18.52;5.00;;;;;;;-8.86;66.58;99297.97;4933285;28;20049;-79
2022/01/01 04:39:59;;;;;;;12.77;4.30;;;;;;;-8.88;66.77;99289.31;4982072;28;20086;-80
2022/01/01 04:42:25;;;;;;;11.27;4.93;;;;;;;-8.93;66.61;99286.75;4986025;28;20554;-79
2022/01/01 04:44:52;;;;;;;11.90;4.03;;;;;;;-9.06;66.92;99283.34;4931914;28;20035;-79
2022/01/01 04:47:18;;;;;;;8.93;3.58;;;;;;;-9.08;66.96;99298.00;4963002;28;20062;-80
2022/01/01 04:49:44;;;;;;;7.72;4.60;;;;;;;-9.12;67.18;99300.63;4975760;28;20043;-78
2022/01/01 04:52:10;;;;;;;9.65;5.05;;;;;;;-9.18;67.67;99296.28;4977087;28;20137;-77
2022/01/01 04:54:40;;;;;;;7.95;3.38;;;;;;;-9.15;67.77;99306.66;4946769;28;20082;-81
2022/01/01 04:57:06;;;;;;;13.10;5.25;;;;;;;-9.15;67.67;99309.22;4974720;28;20093;-83
2022/01/01 04:59:33;;;;;;;12.50;5.88;;;;;;;-9.05;67.89;99308.38;4927596;28;20433;-79
2022/01/01 05:02:00;;;;;;;4.43;3.50;;;;;;;-9.04;67.71;99306.63;4976406;28;20445;-80
2022/01/01 05:04:25;;;;;;;11.30;5.47;;;;;;;-9.01;67.25;99303.19;4941842;28;20096;-79
2022/01/01 05:06:52;;;;;;;8.98;4.72;;;;;;;-9.02;67.14;99306.66;4910268;28;20137;-79
2022/01/01 05:09:18;;;;;;;12.30;5.68;;;;;;;-9.00;67.20;99292.81;4975094;28;20047;-80
2022/01/01 05:11:45;;;;;;;14.88;5.72;;;;;;;-8.94;66.92;99302.31;4926501;28;20053;-80
2022/01/01 05:14:11;;;;;;;20.80;6.45;;;;;;;-8.93;67.23;99306.63;4957990;28;20109;-79
2022/01/01 05:16:37;;;;;;;7.50;3.65;;;;;;;-8.83;67.09;99290.19;4941363;28;20070;-79
2022/01/01 05:19:03;;;;;;;6.05;3.90;;;;;;;-8.79;66.54;99273.78;4956717;28;20054;-78
2022/01/01 05:21:32;;;;;;;15.55;6.43;;;;;;;-8.82;66.58;99289.31;4941605;28;20042;-80
2022/01/01 05:23:59;;;;;;;13.05;4.20;;;;;;;-8.86;66.45;99283.28;4942028;28;20050;-79
2022/01/01 05:26:25;;;;;;;14.77;6.32;;;;;;;-8.82;66.71;99297.09;4941636;28;20047;-81
2022/01/01 05:28:51;;;;;;;12.50;5.47;;;;;;;-8.79;66.43;99280.69;4957921;28;20078;-79
2022/01/01 05:31:19;;;;;;;13.90;6.20;;;;;;;-8.85;66.39;99268.59;4957313;28;20046;-81
2022/01/01 05:33:46;;;;;;;9.82;5.63;;;;;;;-8.78;66.62;99280.66;4956916;28;20569;-78
2022/01/01 05:36:13;;;;;;;10.93;5.70;;;;;;;-8.66;66.62;99270.25;4956203;28;20038;-80
2022/01/01 05:38:42;;;;;;;11.23;5.70;;;;;;;-8.59;66.25;99274.53;4956700;28;20050;-79
2022/01/01 05:41:08;;;;;;;;;;;;;;;-8.71;66.09;99273.75;4958023;28;20082;-89
2022/01/01 05:43:34;;;;;;;5.60;3.20;;;;;;;-8.74;66.09;99272.00;4974042;28;19980;-83
2022/01/01 05:46:00;;;;;;;14.93;5.55;;;;;;;-8.79;66.29;99268.59;4892976;28;20461;-94
2022/01/01 05:48:26;;;;;;;8.73;3.33;;;;;;;-8.88;66.86;99263.41;4942126;28;20049;-80
2022/01/01 05:50:53;;;;;;;5.28;3.35;;;;;;;-8.77;66.86;99264.25;4975495;28;20046;-85
2022/01/01 05:53:19;;;;;;;24.23;4.93;;;;;;;-8.74;66.86;99250.44;4974300;28;20046;-88
2022/01/01 05:55:46;;;;;;;11.63;4.88;;;;;;;-8.66;66.56;99266.81;4910584;28;20066;-80
2022/01/01 05:58:12;;;;;;;11.13;5.65;;;;;;;-8.63;66.86;99264.19;4941150;28;20053;-81
2022/01/01 06:00:38;;;;;;;9.45;4.50;;;;;;;-8.50;66.57;99270.19;4959729;28;20474;-84
2022/01/01 06:03:04;;;;;;;7.90;3.67;;;;;;;-8.44;66.28;99277.94;4975461;28;20046;-81
2022/01/01 06:05:30;;;;;;;25.15;5.47;;;;;;;-8.39;66.06;99281.34;4957047;28;20074;-82
2022/01/01 06:07:57;;;;;;;21.27;5.65;;;;;;;-8.34;65.80;99266.63;4973444;28;20051;-82
2022/01/01 06:10:23;;;;;;;12.35;5.82;;;;;;;-7.87;68.06;99268.06;4925235;28;20049;-90
2022/01/01 06:12:49;;;;;;;11.93;5.40;;;;;;;-7.85;64.77;99255.94;4973038;28;20058;-87
2022/01/01 06:15:16;;;;;;;23.13;7.25;;;;;;;-7.93;64.33;99262.94;4941232;28;20043;-85
2022/01/01 06:17:41;;;;;;;11.18;5.97;;;;;;;-8.02;64.35;99257.78;4909845;28;20054;-87
2022/01/01 06:20:08;;;;;;;19.00;6.93;;;;;;;-7.77;64.21;99272.31;4972913;28;20077;-82
2022/01/01 06:22:34;;;;;;;22.50;6.45;;;;;;;-7.58;63.79;99279.06;4956945;28;20537;-80
2022/01/01 06:25:00;;;;;;;7.82;4.45;;;;;;;-7.57;63.13;99288.56;4940069;28;20478;-80
2022/01/01 06:27:26;;;;;;;10.38;5.60;;;;;;;-7.61;62.71;99281.69;4976501;28;20074;-84
2022/01/01 06:29:52;;;;;;;15.10;6.85;;;;;;;-7.72;62.67;99261.88;4956746;28;20567;-87
2022/01/01 06:32:18;;;;;;;27.17;7.28;;;;;;;-7.83;62.85;99243.81;4974788;28;20042;-86
2022/01/01 06:34:44;;;;;;;13.65;6.95;;;;;;;-7.75;63.11;99247.19;4975559;28;20051;-81
2022/01/01 06:37:10;;;;;;;13.70;6.10;;;;;;;-7.57;63.28;99265.22;4977731;28;20058;-86
2022/01/01 06:39:37;;;;;;;18.50;5.78;;;;;;;-7.40;62.70;99283.25;4940984;28;20507;-84
2022/01/01 06:42:03;;;;;;;13.38;6.03;;;;;;;-7.38;62.46;99252.06;4956786;28;20094;-80
2022/01/01 06:44:29;;;;;;;10.27;6.28;;;;;;;-7.25;62.63;99245.91;4974245;28;20043;-89
2022/01/01 06:46:55;;;;;;;10.65;3.88;;;;;;;-7.39;61.45;99242.56;4974924;28;20501;-87
2022/01/01 06:49:21;;;;;;;12.85;6.25;;;;;;;-7.24;61.73;99254.56;4975361;28;20047;-88
2022/01/01 06:51:47;;;;;;;12.70;6.05;;;;;;;-7.48;61.52;99240.06;4975781;28;20050;-88
2022/01/01 06:54:13;;;;;;;15.57;5.75;;;;;;;-7.46;61.89;99248.69;4909480;28;20070;-83
2022/01/01 06:56:39;;;;;;;19.48;6.90;;;;;;;-7.33;66.91;99245.13;4944088;28;20058;-83
2022/01/01 06:59:06;;;;;;;28.77;7.43;;;;;;;-7.52;62.93;99257.41;4943978;28;20078;-81
2022/01/01 07:01:32;;;;;;;16.00;7.53;;;;;;;-7.41;63.02;99246.91;4961073;28;20039;-80
2022/01/01 07:03:59;;;;;;;17.65;7.70;;;;;;;-7.61;62.16;99254.88;4943835;28;20039;-85
2022/01/01 07:06:25;;;;;;;14.40;6.63;;;;;;;-7.64;62.43;99252.31;4976892;28;20047;-81
2022/01/01 07:08:50;;;;;;;20.17;7.13;;;;;;;-7.51;62.62;99251.34;4943876;28;20433;-84
2022/01/01 07:11:16;;;;;;;20.60;6.82;;;;;;;-7.47;62.75;99252.16;4977179;28;20054;-84
2022/01/01 07:13:42;;;;;;;12.48;5.85;;;;;;;-7.36;62.64;99246.00;4961572;28;20053;-84
2022/01/01 07:16:08;;;;;;;12.45;5.93;;;;;;;-7.38;62.15;99237.34;4976707;28;20078;-84
2022/01/01 07:18:34;;;;;;;13.00;6.60;;;;;;;-7.35;62.26;99226.09;4976859;28;20134;-85
2022/01/01 07:21:00;;;;;;;11.70;6.63;;;;;;;-7.36;62.45;99239.94;4943678;28;20436;-84
2022/01/01 07:23:26;;;;;;;13.50;5.97;;;;;;;-7.25;62.60;99238.13;4976006;28;20054;-82
2022/01/01 07:25:52;;;;;;;19.48;7.15;;;;;;;-7.04;61.77;99242.22;4927568;28;20134;-81
2022/01/01 07:28:18;;;;;;;10.65;5.65;;;;;;;-7.07;61.60;99231.00;4959139;28;20134;-80
2022/01/01 07:30:44;;;;;;;13.15;6.28;;;;;;;-7.13;61.87;99237.97;4959230;28;20130;-83
2022/01/01 07:33:13;;;;;;;21.55;6.57;;;;;;;-7.16;61.74;99217.22;4943292;28;20138;-83
2022/01/01 07:35:39;;;;;;;;;;;;;;;-7.05;62.08;99234.44;4959652;28;20206;-81
2022/01/01 07:38:05;;;;;;;15.18;6.18;;;;;;;-6.91;62.05;99219.56;4942210;28;19918;-83
2022/01/01 07:40:34;;;;;;;9.98;5.95;;;;;;;-6.71;61.72;99220.16;4976232;28;20129;-83
2022/01/01 07:43:13;;;;;;;10.38;5.97;;;;;;;-6.71;60.97;99217.56;4958650;28;20081;-82
2022/01/01 07:45:40;;;;;;;10.77;5.63;;;;;;;-6.62;61.32;99227.88;4958893;28;20137;-82
2022/01/01 07:48:07;;;;;;;19.15;6.43;;;;;;;-6.62;61.27;99225.28;4944141;28;20054;-82
2022/01/01 07:50:33;;;;;;;23.13;7.40;;;;;;;-6.60;61.39;99207.91;4978191;28;20121;-78
2022/01/01 07:52:59;;;;;;;12.48;6.25;;;;;;;-6.38;61.39;99224.06;4958937;28;20395;-78
2022/01/01 07:55:25;;;;;;;19.13;6.40;;;;;;;-6.37;60.38;99211.94;4958840;28;20047;-89
2022/01/01 07:57:51;;;;;;;15.23;6.60;;;;;;;-6.26;60.32;99202.22;4926975;28;20042;-83
2022/01/01 08:00:18;;;;;;;22.40;7.43;;;;;;;-6.33;60.00;99195.41;4974562;28;20537;-85
2022/01/01 08:02:45;;;;;;;15.05;6.85;;;;;;;-6.36;60.18;99203.25;4976369;28;20065;-81
2022/01/01 08:05:11;;;;;;;19.33;6.95;;;;;;;-6.40;60.04;99219.75;4949908;28;20042;-87
2022/01/01 08:07:38;;;;;;;19.98;8.13;;;;;;;-6.36;60.77;99201.53;4943711;28;20146;-86
2022/01/01 08:10:05;;;;;;;18.42;8.43;;;;;;;-6.21;60.69;99195.22;4958856;28;20050;-87
2022/01/01 08:12:30;;;;;;;17.55;7.43;;;;;;;-6.12;60.04;99195.09;4926654;28;20047;-83
2022/01/01 08:14:57;;;;;;;17.67;8.82;;;;;;;-6.08;59.61;99182.91;4976289;28;20057;-86
2022/01/01 08:17:23;;;;;;;15.18;7.43;;;;;;;-6.20;59.80;99181.34;4975821;28;20051;-88
2022/01/01 08:19:50;;;;;;;13.38;7.70;;;;;;;-6.02;60.37;99168.91;4959184;28;20081;-81
2022/01/01 08:22:16;;;;;;;11.05;5.63;;;;;;;-6.00;59.28;99173.22;4961229;28;20106;-90
2022/01/01 08:24:42;;;;;;;15.27;7.20;;;;;;;-6.07;59.36;99170.75;4924340;28;20045;-82
2022/01/01 08:27:08;;;;;;;20.30;7.00;;;;;;;-6.16;59.63;99172.59;4983469;28;20075;-86
2022/01/01 08:29:34;;;;;;;11.73;6.10;;;;;;;-6.33;59.50;99173.72;4970082;28;20046;-93
2022/01/01 08:32:00;;;;;;;15.32;8.68;;;;;;;-6.25;59.88;99164.94;4962101;28;20067;-83
2022/01/01 08:34:26;;;;;;;13.75;7.05;;;;;;;-6.11;60.11;99160.38;4942412;28;20525;-87
2022/01/01 08:36:52;;;;;;;17.95;7.78;;;;;;;-6.12;59.42;99169.06;4942814;28;20074;-89
2022/01/01 08:39:18;;;;;;;19.05;7.55;;;;;;;-6.13;59.85;99159.56;4935070;28;20047;-87
2022/01/01 08:41:45;;;;;;;19.15;6.53;;;;;;;-6.30;59.60;99160.69;4937451;28;20067;-87
2022/01/01 08:44:11;;;;;;;34.95;7.20;;;;;;;-6.46;60.64;99158.31;4952572;28;20106;-86
2022/01/01 08:46:37;;;;;;;29.20;9.30;;;;;;;-6.42;60.83;99153.94;4965165;28;20074;-86
2022/01/01 08:49:03;;;;;;;19.90;7.65;;;;;;;-6.45;60.66;99164.38;4912497;28;20101;-84
2022/01/01 08:51:29;;;;;;;11.75;5.78;;;;;;;-6.32;60.69;99145.09;4944999;28;20046;-93
2022/01/01 08:53:57;;;;;;;27.45;9.30;;;;;;;-6.28;60.30;99146.78;4912959;28;20053;-86
2022/01/01 08:56:23;;;;;;;18.88;8.40;;;;;;;-6.49;60.11;99126.28;4979498;28;20085;-87
2022/01/01 08:58:49;;;;;;;10.68;5.97;;;;;;;-6.47;60.55;99137.50;4962833;28;20477;-93
2022/01/01 09:01:15;;;;;;;19.30;8.68;;;;;;;-6.47;60.61;99145.31;4947709;28;20046;-91
2022/01/01 09:03:42;;;;;;;23.25;8.82;;;;;;;-6.48;60.88;99138.41;4962626;28;20050;-86
2022/01/01 09:06:08;;;;;;;17.63;6.90;;;;;;;-6.33;63.87;99125.16;4975259;28;20081;-82
2022/01/01 09:08:39;;;;;;;18.35;8.85;;;;;;;-5.94;64.21;99120.19;4975781;28;20038;-80
2022/01/01 09:11:05;;;;;;;17.83;8.02;;;;;;;-5.86;61.48;99118.31;4975370;28;20049;-82
2022/01/01 09:13:31;;;;;;;14.27;6.75;;;;;;;-6.01;59.68;99110.81;4976007;28;20049;-85
2022/01/01 09:15:57;;;;;;;22.40;8.63;;;;;;;-6.17;60.15;99116.25;4959193;28;20136;-89
2022/01/01 09:18:23;;;;;;;20.50;8.90;;;;;;;-6.17;60.69;99121.47;4926774;28;20046;-87
2022/01/01 09:20:50;;;;;;;21.20;9.57;;;;;;;-6.13;60.46;99120.53;4957553;28;20038;-83
2022/01/01 09:23:16;;;;;;;24.42;9.85;;;;;;;-6.22;60.49;99125.88;4958378;28;20052;-90
2022/01/01 09:25:42;;;;;;;18.23;8.10;;;;;;;-6.19;60.20;99125.81;4960836;28;20054;-87
2022/01/01 09:28:08;;;;;;;20.30;8.95;;;;;;;-6.42;60.33;99126.19;4979794;28;20082;-96
2022/01/01 09:30:34;;;;;;;18.40;8.90;;;;;;;-6.35;61.06;99129.56;4944258;28;20043;-85
2022/01/01 09:33:03;;;;;;;20.00;9.17;;;;;;;-6.27;60.63;99122.50;4975042;28;20381;-86
2022/01/01 09:35:29;;;;;;;20.42;9.57;;;;;;;-6.28;60.72;99114.69;4974025;28;20142;-86
2022/01/01 09:37:55;;;;;;;17.75;8.35;;;;;;;-6.27;60.52;99106.03;4974888;28;20050;-93
2022/01/01 09:40:21;;;;;;;22.13;8.48;;;;;;;-6.26;60.49;99100.78;4926955;28;20050;-87
2022/01/01 09:42:47;;;;;;;19.85;8.48;;;;;;;-6.23;60.26;99105.94;4974925;28;20414;-84
2022/01/01 09:45:13;;;;;;;16.73;7.68;;;;;;;-6.44;60.39;99095.88;4957899;28;20077;-89
2022/01/01 09:47:39;;;;;;;16.42;8.77;;;;;;;-6.47;60.77;99093.31;4927628;28;20141;-89
2022/01/01 09:50:06;;;;;;;14.07;6.47;;;;;;;-6.43;61.18;99089.78;4941577;28;20117;-90
2022/01/01 09:52:32;;;;;;;15.20;8.27;;;;;;;-6.30;60.83;99099.13;4941667;28;20042;-91
2022/01/01 09:54:58;;;;;;;16.95;7.38;;;;;;;-6.28;60.89;99107.78;4957793;28;20061;-85
2022/01/01 09:57:24;;;;;;;15.13;7.25;;;;;;;-6.28;61.08;99099.97;4974879;28;20429;-86
2022/01/01 09:59:51;;;;;;;14.95;6.30;;;;;;;-6.33;60.87;99091.34;4927080;28;20170;-88
2022/01/01 10:02:18;;;;;;;13.38;6.97;;;;;;;-6.33;60.93;99096.56;4961014;28;20030;-86
2022/01/01 10:04:50;;;;;;;18.08;7.13;;;;;;;-6.27;60.75;99088.66;4933202;28;20093;-90
2022/01/01 10:07:16;;;;;;;14.95;6.43;;;;;;;-6.31;60.84;99097.41;4932567;28;20039;-85
2022/01/01 10:09:42;;;;;;;13.63;6.35;;;;;;;-6.39;61.17;99112.28;4957720;28;20042;-79
2022/01/01 10:12:10;;;;;;;10.18;6.28;;;;;;;-6.30;61.36;99085.25;4974010;28;20093;-81
2022/01/01 10:14:37;;;;;;;12.60;6.18;;;;;;;-6.27;61.04;99074.81;4941323;28;20051;-84
2022/01/01 10:17:20;;;;;;;14.07;6.80;;;;;;;-6.29;61.23;99072.22;4940275;28;20503;-89
2022/01/01 10:19:49;;;;;;;12.55;5.35;;;;;;;-6.23;61.39;99072.13;4940868;28;20046;-87
2022/01/01 10:22:23;;;;;;;13.45;7.05;;;;;;;-6.21;61.41;99078.16;4955998;28;20457;-82
2022/01/01 10:27:59;;;;;;;12.73;6.45;;;;;;;-5.94;60.96;99094.16;4965990;28;20073;-94
2022/01/01 10:30:40;;;;;;;13.48;7.00;;;;;;;-5.94;60.85;99094.16;4911459;28;20507;-94
2022/01/01 10:33:13;;;;;;;20.27;7.55;;;;;;;-5.97;60.47;99091.66;4959728;28;20465;-90
2022/01/01 10:35:50;;;;;;;14.50;7.43;;;;;;;-6.10;60.45;99088.38;4944070;28;20058;-82
2022/01/01 10:38:23;;;;;;;15.27;7.22;;;;;;;-6.22;60.79;99084.25;4931318;28;20105;-88
2022/01/01 10:41:06;;;;;;;13.07;7.43;;;;;;;-6.32;61.25;99087.88;4900475;28;20042;-84
2022/01/01 10:43:40;;;;;;;19.23;7.10;;;;;;;-6.46;62.08;99075.09;4929856;28;20051;-90
2022/01/01 10:46:11;;;;;;;16.88;7.03;;;;;;;-6.46;62.22;99069.06;4946213;28;20110;-92
2022/01/01 10:51:07;;;;;;;12.68;7.20;;;;;;;-6.43;62.63;99081.97;4976707;28;20490;-82
2022/01/01 10:53:34;;;;;;;14.27;7.13;;;;;;;-6.48;62.43;99066.44;4945980;28;20043;-89
2022/01/01 10:56:01;;;;;;;14.45;6.80;;;;;;;-6.48;62.70;99074.25;4964063;28;20395;-87
2022/01/01 10:58:29;;;;;;;11.43;6.07;;;;;;;-6.55;62.71;99069.19;4940257;28;20149;-86
2022/01/01 11:01:01;;;;;;;10.03;5.07;;;;;;;-6.61;62.71;99076.19;4946790;28;20221;-89
2022/01/01 11:03:28;;;;;;;14.95;6.53;;;;;;;-6.65;63.31;99084.06;4945633;28;20429;-87
2022/01/01 11:06:17;;;;;;;13.93;6.93;;;;;;;-6.64;63.54;99068.44;4913504;28;20564;-85
2022/01/01 11:08:45;;;;;;;32.60;8.05;;;;;;;-6.48;63.10;99076.00;4921811;29;20054;-83
2022/01/01 11:11:13;;;;;;;12.60;5.95;;;;;;;-6.52;63.18;99085.59;4921306;29;20048;-88
2022/01/01 11:13:39;;;;;;;13.40;7.38;;;;;;;-6.74;63.31;99079.84;4920644;29;20498;-83
2022/01/01 11:16:05;;;;;;;16.02;6.57;;;;;;;-6.80;63.99;99084.31;4920459;29;20062;-84
2022/01/01 11:18:33;;;;;;;14.60;7.80;;;;;;;-6.72;64.21;99082.44;4905625;29;20039;-90
2022/01/01 11:20:59;;;;;;;14.23;7.53;;;;;;;-6.67;64.25;99086.69;4921267;29;20083;-89
2022/01/01 11:23:26;;;;;;;15.75;7.03;;;;;;;-6.58;64.26;99079.63;4920072;29;20049;-84
2022/01/01 11:25:54;;;;;;;29.35;6.07;;;;;;;-6.51;63.92;99078.66;4935783;29;20482;-84
2022/01/01 11:28:20;;;;;;;19.02;7.72;;;;;;;-6.54;63.63;99070.88;4935173;29;20043;-87
2022/01/01 11:30:55;;;;;;;13.70;7.28;;;;;;;-6.62;63.82;99068.41;4935823;29;20053;-81
2022/01/01 11:33:28;;;;;;;16.15;7.47;;;;;;;-6.57;63.93;99076.16;4935809;29;20579;-81
2022/01/01 11:35:56;;;;;;;17.63;7.53;;;;;;;-6.59;63.95;99068.38;4935127;29;20130;-82